sensor_id;sensor_type;location;lat;lon;timestamp;P1;durP1;ratioP1;P2;durP2;ratioP2
10335;SDS011;5213;53.548;9.930;2022-08-19T00:01:45;11.68;;;9.45;;
10335;SDS011;5213;53.548;9.930;2022-08-19T00:04:12;10.02;;;9.02;;
10335;SDS011;5213;53.548;9.930;2022-08-19T00:06:39;12.15;;;10.27;;
10335;SDS011;5213;53.548;9.930;2022-08-19T00:09:07;12.95;;;9.65;;
10335;SDS011;5213;53.548;9.930;2022-08-19T00:11:33;10.88;;;9.75;;
10335;SDS011;5213;53.548;9.930;2022-08-19T00:14:01;10.77;;;9.68;;
10335;SDS011;5213;53.548;9.930;2022-08-19T00:16:28;13.27;;;10.23;;
10335;SDS011;5213;53.548;9.930;2022-08-19T00:18:54;12.10;;;11.00;;
10335;SDS011;5213;53.548;9.930;2022-08-19T00:21:20;12.98;;;11.57;;
10335;SDS011;5213;53.548;9.930;2022-08-19T00:23:47;15.40;;;13.82;;
10335;SDS011;5213;53.548;9.930;2022-08-19T00:26:13;14.02;;;12.73;;
10335;SDS011;5213;53.548;9.930;2022-08-19T00:28:39;14.05;;;12.23;;
10335;SDS011;5213;53.548;9.930;2022-08-19T00:31:05;18.48;;;15.65;;
10335;SDS011;5213;53.548;9.930;2022-08-19T00:33:32;21.00;;;17.50;;
10335;SDS011;5213;53.548;9.930;2022-08-19T00:35:59;22.25;;;17.88;;
10335;SDS011;5213;53.548;9.930;2022-08-19T00:38:25;22.58;;;18.15;;
10335;SDS011;5213;53.548;9.930;2022-08-19T00:40:51;23.98;;;18.45;;
10335;SDS011;5213;53.548;9.930;2022-08-19T00:43:18;21.17;;;17.58;;
10335;SDS011;5213;53.548;9.930;2022-08-19T00:45:46;20.83;;;17.50;;
10335;SDS011;5213;53.548;9.930;2022-08-19T00:48:13;21.00;;;18.73;;
10335;SDS011;5213;53.548;9.930;2022-08-19T00:50:39;19.73;;;17.08;;
10335;SDS011;5213;53.548;9.930;2022-08-19T00:53:08;22.60;;;17.92;;
10335;SDS011;5213;53.548;9.930;2022-08-19T00:55:34;20.98;;;16.83;;
10335;SDS011;5213;53.548;9.930;2022-08-19T00:58:05;22.58;;;18.23;;
10335;SDS011;5213;53.548;9.930;2022-08-19T01:00:32;19.88;;;17.48;;
10335;SDS011;5213;53.548;9.930;2022-08-19T01:03:01;22.63;;;18.15;;
10335;SDS011;5213;53.548;9.930;2022-08-19T01:05:27;28.55;;;22.02;;
10335;SDS011;5213;53.548;9.930;2022-08-19T01:07:54;24.35;;;19.75;;
10335;SDS011;5213;53.548;9.930;2022-08-19T01:10:23;26.75;;;21.05;;
10335;SDS011;5213;53.548;9.930;2022-08-19T01:12:49;27.05;;;20.25;;
10335;SDS011;5213;53.548;9.930;2022-08-19T01:15:17;29.90;;;20.70;;
10335;SDS011;5213;53.548;9.930;2022-08-19T01:17:44;26.48;;;20.95;;
10335;SDS011;5213;53.548;9.930;2022-08-19T01:20:12;25.63;;;20.50;;
10335;SDS011;5213;53.548;9.930;2022-08-19T01:25:12;28.63;;;19.40;;
10335;SDS011;5213;53.548;9.930;2022-08-19T01:27:43;26.95;;;20.20;;
10335;SDS011;5213;53.548;9.930;2022-08-19T01:30:12;23.10;;;19.77;;
10335;SDS011;5213;53.548;9.930;2022-08-19T01:32:38;22.88;;;19.35;;
10335;SDS011;5213;53.548;9.930;2022-08-19T01:35:04;25.05;;;19.45;;
10335;SDS011;5213;53.548;9.930;2022-08-19T01:37:40;24.65;;;20.08;;
10335;SDS011;5213;53.548;9.930;2022-08-19T01:40:07;24.90;;;19.38;;
10335;SDS011;5213;53.548;9.930;2022-08-19T01:42:33;23.15;;;20.50;;
10335;SDS011;5213;53.548;9.930;2022-08-19T01:45:00;25.48;;;20.02;;
10335;SDS011;5213;53.548;9.930;2022-08-19T01:47:26;25.55;;;20.10;;
10335;SDS011;5213;53.548;9.930;2022-08-19T01:49:52;24.45;;;19.42;;
10335;SDS011;5213;53.548;9.930;2022-08-19T01:52:19;24.45;;;19.50;;
10335;SDS011;5213;53.548;9.930;2022-08-19T01:54:45;23.35;;;18.98;;
10335;SDS011;5213;53.548;9.930;2022-08-19T01:57:12;26.17;;;20.17;;
10335;SDS011;5213;53.548;9.930;2022-08-19T01:59:40;25.50;;;19.65;;
10335;SDS011;5213;53.548;9.930;2022-08-19T02:02:06;29.33;;;20.77;;
10335;SDS011;5213;53.548;9.930;2022-08-19T02:04:33;29.50;;;20.88;;
10335;SDS011;5213;53.548;9.930;2022-08-19T02:06:59;27.48;;;21.15;;
10335;SDS011;5213;53.548;9.930;2022-08-19T02:09:26;25.95;;;20.63;;
10335;SDS011;5213;53.548;9.930;2022-08-19T02:11:52;31.60;;;21.95;;
10335;SDS011;5213;53.548;9.930;2022-08-19T02:14:18;31.27;;;21.90;;
10335;SDS011;5213;53.548;9.930;2022-08-19T02:16:44;30.73;;;20.80;;
10335;SDS011;5213;53.548;9.930;2022-08-19T02:19:10;31.00;;;22.55;;
10335;SDS011;5213;53.548;9.930;2022-08-19T02:21:36;29.40;;;20.83;;
10335;SDS011;5213;53.548;9.930;2022-08-19T02:24:02;32.80;;;22.50;;
10335;SDS011;5213;53.548;9.930;2022-08-19T02:26:29;33.72;;;22.92;;
10335;SDS011;5213;53.548;9.930;2022-08-19T02:28:55;37.15;;;23.42;;
10335;SDS011;5213;53.548;9.930;2022-08-19T02:31:23;35.72;;;23.25;;
10335;SDS011;5213;53.548;9.930;2022-08-19T02:33:49;39.90;;;24.17;;
10335;SDS011;5213;53.548;9.930;2022-08-19T02:36:17;36.78;;;23.90;;
10335;SDS011;5213;53.548;9.930;2022-08-19T02:38:43;37.30;;;22.98;;
10335;SDS011;5213;53.548;9.930;2022-08-19T02:41:14;37.72;;;23.90;;
10335;SDS011;5213;53.548;9.930;2022-08-19T02:43:40;35.80;;;23.67;;
10335;SDS011;5213;53.548;9.930;2022-08-19T02:48:39;39.20;;;24.15;;
10335;SDS011;5213;53.548;9.930;2022-08-19T02:51:05;36.78;;;23.70;;
10335;SDS011;5213;53.548;9.930;2022-08-19T02:53:31;37.47;;;23.60;;
10335;SDS011;5213;53.548;9.930;2022-08-19T02:55:57;41.05;;;25.48;;
10335;SDS011;5213;53.548;9.930;2022-08-19T02:58:23;41.72;;;25.20;;
10335;SDS011;5213;53.548;9.930;2022-08-19T03:00:50;48.92;;;26.50;;
10335;SDS011;5213;53.548;9.930;2022-08-19T03:03:17;43.40;;;25.88;;
10335;SDS011;5213;53.548;9.930;2022-08-19T03:05:43;49.63;;;27.98;;
10335;SDS011;5213;53.548;9.930;2022-08-19T03:08:10;45.20;;;27.83;;
10335;SDS011;5213;53.548;9.930;2022-08-19T03:10:44;52.78;;;30.67;;
10335;SDS011;5213;53.548;9.930;2022-08-19T03:13:12;52.30;;;30.23;;
10335;SDS011;5213;53.548;9.930;2022-08-19T03:15:39;57.83;;;30.85;;
10335;SDS011;5213;53.548;9.930;2022-08-19T03:18:05;50.15;;;29.42;;
10335;SDS011;5213;53.548;9.930;2022-08-19T03:20:31;60.72;;;32.92;;
10335;SDS011;5213;53.548;9.930;2022-08-19T03:22:57;52.38;;;31.33;;
10335;SDS011;5213;53.548;9.930;2022-08-19T03:25:23;49.13;;;30.13;;
10335;SDS011;5213;53.548;9.930;2022-08-19T03:27:49;53.97;;;31.25;;
10335;SDS011;5213;53.548;9.930;2022-08-19T03:30:15;54.25;;;31.25;;
10335;SDS011;5213;53.548;9.930;2022-08-19T03:32:41;49.55;;;29.88;;
10335;SDS011;5213;53.548;9.930;2022-08-19T03:35:08;53.70;;;30.25;;
10335;SDS011;5213;53.548;9.930;2022-08-19T03:37:34;54.75;;;30.80;;
10335;SDS011;5213;53.548;9.930;2022-08-19T03:40:00;53.70;;;30.55;;
10335;SDS011;5213;53.548;9.930;2022-08-19T03:42:28;52.83;;;30.15;;
10335;SDS011;5213;53.548;9.930;2022-08-19T03:44:55;43.75;;;29.80;;
10335;SDS011;5213;53.548;9.930;2022-08-19T03:47:21;51.45;;;32.10;;
10335;SDS011;5213;53.548;9.930;2022-08-19T03:49:47;50.67;;;29.33;;
10335;SDS011;5213;53.548;9.930;2022-08-19T03:52:13;54.78;;;30.85;;
10335;SDS011;5213;53.548;9.930;2022-08-19T03:54:39;46.53;;;30.52;;
10335;SDS011;5213;53.548;9.930;2022-08-19T03:57:05;57.90;;;31.95;;
10335;SDS011;5213;53.548;9.930;2022-08-19T03:59:33;53.10;;;31.13;;
10335;SDS011;5213;53.548;9.930;2022-08-19T04:02:01;48.38;;;32.60;;
10335;SDS011;5213;53.548;9.930;2022-08-19T04:04:28;52.92;;;30.77;;
10335;SDS011;5213;53.548;9.930;2022-08-19T04:06:54;53.65;;;30.63;;
10335;SDS011;5213;53.548;9.930;2022-08-19T04:09:20;49.95;;;33.47;;
10335;SDS011;5213;53.548;9.930;2022-08-19T04:11:47;54.55;;;33.05;;
10335;SDS011;5213;53.548;9.930;2022-08-19T04:14:16;53.10;;;34.47;;
10335;SDS011;5213;53.548;9.930;2022-08-19T04:16:42;57.38;;;35.50;;
10335;SDS011;5213;53.548;9.930;2022-08-19T04:19:09;53.75;;;33.15;;
10335;SDS011;5213;53.548;9.930;2022-08-19T04:21:35;51.30;;;32.85;;
10335;SDS011;5213;53.548;9.930;2022-08-19T04:24:02;50.22;;;30.58;;
10335;SDS011;5213;53.548;9.930;2022-08-19T04:26:30;51.90;;;29.73;;
10335;SDS011;5213;53.548;9.930;2022-08-19T04:29:00;44.90;;;29.05;;
10335;SDS011;5213;53.548;9.930;2022-08-19T04:31:27;40.60;;;28.63;;
10335;SDS011;5213;53.548;9.930;2022-08-19T04:33:55;46.15;;;29.75;;
10335;SDS011;5213;53.548;9.930;2022-08-19T04:36:22;42.45;;;28.60;;
10335;SDS011;5213;53.548;9.930;2022-08-19T04:38:49;40.25;;;28.38;;
10335;SDS011;5213;53.548;9.930;2022-08-19T04:41:16;42.63;;;28.13;;
10335;SDS011;5213;53.548;9.930;2022-08-19T04:44:01;44.00;;;28.10;;
10335;SDS011;5213;53.548;9.930;2022-08-19T04:46:27;44.78;;;28.92;;
10335;SDS011;5213;53.548;9.930;2022-08-19T04:48:55;44.67;;;29.35;;
10335;SDS011;5213;53.548;9.930;2022-08-19T04:51:22;42.58;;;28.90;;
10335;SDS011;5213;53.548;9.930;2022-08-19T04:53:48;45.72;;;29.13;;
10335;SDS011;5213;53.548;9.930;2022-08-19T04:56:16;40.45;;;28.30;;
10335;SDS011;5213;53.548;9.930;2022-08-19T04:58:43;42.60;;;27.30;;
10335;SDS011;5213;53.548;9.930;2022-08-19T05:01:19;44.10;;;27.88;;
10335;SDS011;5213;53.548;9.930;2022-08-19T05:03:46;45.63;;;27.88;;
10335;SDS011;5213;53.548;9.930;2022-08-19T05:06:13;48.28;;;27.27;;
10335;SDS011;5213;53.548;9.930;2022-08-19T05:08:40;44.80;;;27.17;;
10335;SDS011;5213;53.548;9.930;2022-08-19T05:13:37;44.45;;;26.77;;
10335;SDS011;5213;53.548;9.930;2022-08-19T05:16:03;42.70;;;26.85;;
10335;SDS011;5213;53.548;9.930;2022-08-19T05:18:29;41.60;;;27.60;;
10335;SDS011;5213;53.548;9.930;2022-08-19T05:21:15;37.28;;;25.75;;
10335;SDS011;5213;53.548;9.930;2022-08-19T05:24:00;37.55;;;25.55;;
10335;SDS011;5213;53.548;9.930;2022-08-19T05:26:27;43.45;;;26.75;;
10335;SDS011;5213;53.548;9.930;2022-08-19T05:28:53;40.20;;;26.23;;
10335;SDS011;5213;53.548;9.930;2022-08-19T05:31:20;43.53;;;25.85;;
10335;SDS011;5213;53.548;9.930;2022-08-19T05:33:46;38.55;;;25.42;;
10335;SDS011;5213;53.548;9.930;2022-08-19T05:36:12;39.38;;;24.77;;
10335;SDS011;5213;53.548;9.930;2022-08-19T05:38:39;41.70;;;25.80;;
10335;SDS011;5213;53.548;9.930;2022-08-19T05:41:09;35.55;;;22.70;;
10335;SDS011;5213;53.548;9.930;2022-08-19T05:43:35;31.95;;;22.58;;
10335;SDS011;5213;53.548;9.930;2022-08-19T05:46:02;30.95;;;21.77;;
10335;SDS011;5213;53.548;9.930;2022-08-19T05:48:29;33.58;;;21.77;;
10335;SDS011;5213;53.548;9.930;2022-08-19T05:50:56;35.97;;;21.83;;
10335;SDS011;5213;53.548;9.930;2022-08-19T05:53:23;30.05;;;22.00;;
10335;SDS011;5213;53.548;9.930;2022-08-19T05:55:49;35.97;;;21.45;;
10335;SDS011;5213;53.548;9.930;2022-08-19T05:58:15;35.70;;;20.67;;
10335;SDS011;5213;53.548;9.930;2022-08-19T06:00:42;30.58;;;20.55;;
10335;SDS011;5213;53.548;9.930;2022-08-19T06:03:09;31.02;;;19.40;;
10335;SDS011;5213;53.548;9.930;2022-08-19T06:05:35;23.42;;;18.80;;
10335;SDS011;5213;53.548;9.930;2022-08-19T06:08:01;26.25;;;17.52;;
10335;SDS011;5213;53.548;9.930;2022-08-19T06:10:27;26.45;;;18.42;;
10335;SDS011;5213;53.548;9.930;2022-08-19T06:12:53;25.45;;;17.60;;
10335;SDS011;5213;53.548;9.930;2022-08-19T06:15:21;23.08;;;17.73;;
10335;SDS011;5213;53.548;9.930;2022-08-19T06:17:50;24.08;;;16.80;;
10335;SDS011;5213;53.548;9.930;2022-08-19T06:20:16;25.38;;;16.75;;
10335;SDS011;5213;53.548;9.930;2022-08-19T06:22:46;25.15;;;16.90;;
10335;SDS011;5213;53.548;9.930;2022-08-19T06:25:13;22.55;;;17.05;;
10335;SDS011;5213;53.548;9.930;2022-08-19T06:27:40;22.73;;;16.15;;
10335;SDS011;5213;53.548;9.930;2022-08-19T06:30:06;21.17;;;16.17;;
10335;SDS011;5213;53.548;9.930;2022-08-19T06:32:32;19.83;;;15.77;;
10335;SDS011;5213;53.548;9.930;2022-08-19T06:34:58;24.63;;;15.65;;
10335;SDS011;5213;53.548;9.930;2022-08-19T06:37:24;26.92;;;15.63;;
10335;SDS011;5213;53.548;9.930;2022-08-19T06:39:50;24.92;;;15.45;;
10335;SDS011;5213;53.548;9.930;2022-08-19T06:42:16;24.30;;;16.33;;
10335;SDS011;5213;53.548;9.930;2022-08-19T06:44:44;25.00;;;15.63;;
10335;SDS011;5213;53.548;9.930;2022-08-19T06:47:12;23.83;;;15.55;;
10335;SDS011;5213;53.548;9.930;2022-08-19T06:49:39;21.92;;;14.45;;
10335;SDS011;5213;53.548;9.930;2022-08-19T06:52:05;19.40;;;14.93;;
10335;SDS011;5213;53.548;9.930;2022-08-19T06:54:31;19.25;;;14.25;;
10335;SDS011;5213;53.548;9.930;2022-08-19T06:56:58;19.35;;;13.98;;
10335;SDS011;5213;53.548;9.930;2022-08-19T06:59:27;21.98;;;13.57;;
10335;SDS011;5213;53.548;9.930;2022-08-19T07:01:54;17.45;;;12.25;;
10335;SDS011;5213;53.548;9.930;2022-08-19T07:04:21;21.50;;;13.13;;
10335;SDS011;5213;53.548;9.930;2022-08-19T07:06:48;20.95;;;12.57;;
10335;SDS011;5213;53.548;9.930;2022-08-19T07:09:15;19.33;;;12.35;;
10335;SDS011;5213;53.548;9.930;2022-08-19T07:11:45;22.02;;;11.48;;
10335;SDS011;5213;53.548;9.930;2022-08-19T07:14:11;14.13;;;11.10;;
10335;SDS011;5213;53.548;9.930;2022-08-19T07:16:39;17.90;;;11.02;;
10335;SDS011;5213;53.548;9.930;2022-08-19T07:19:05;16.10;;;10.98;;
10335;SDS011;5213;53.548;9.930;2022-08-19T07:21:32;16.60;;;11.60;;
10335;SDS011;5213;53.548;9.930;2022-08-19T07:23:58;18.70;;;11.15;;
10335;SDS011;5213;53.548;9.930;2022-08-19T07:26:26;14.23;;;10.77;;
10335;SDS011;5213;53.548;9.930;2022-08-19T07:28:52;13.80;;;9.65;;
10335;SDS011;5213;53.548;9.930;2022-08-19T07:31:20;14.38;;;9.88;;
10335;SDS011;5213;53.548;9.930;2022-08-19T07:33:47;15.25;;;9.73;;
10335;SDS011;5213;53.548;9.930;2022-08-19T07:36:14;14.65;;;10.02;;
10335;SDS011;5213;53.548;9.930;2022-08-19T07:38:42;11.77;;;9.30;;
10335;SDS011;5213;53.548;9.930;2022-08-19T07:41:09;18.70;;;8.90;;
10335;SDS011;5213;53.548;9.930;2022-08-19T07:43:36;13.18;;;9.25;;
10335;SDS011;5213;53.548;9.930;2022-08-19T07:46:03;9.95;;;8.50;;
10335;SDS011;5213;53.548;9.930;2022-08-19T07:48:29;10.75;;;8.73;;
10335;SDS011;5213;53.548;9.930;2022-08-19T07:50:56;13.15;;;9.15;;
10335;SDS011;5213;53.548;9.930;2022-08-19T07:53:23;12.45;;;8.38;;
10335;SDS011;5213;53.548;9.930;2022-08-19T07:55:50;9.88;;;8.57;;
10335;SDS011;5213;53.548;9.930;2022-08-19T07:58:17;9.75;;;8.75;;
10335;SDS011;5213;53.548;9.930;2022-08-19T08:00:44;10.98;;;9.07;;
10335;SDS011;5213;53.548;9.930;2022-08-19T08:03:11;9.77;;;8.25;;
10335;SDS011;5213;53.548;9.930;2022-08-19T08:05:37;10.95;;;8.25;;
10335;SDS011;5213;53.548;9.930;2022-08-19T08:08:22;10.55;;;8.25;;
10335;SDS011;5213;53.548;9.930;2022-08-19T08:11:07;10.38;;;8.43;;
10335;SDS011;5213;53.548;9.930;2022-08-19T08:13:33;14.40;;;8.52;;
10335;SDS011;5213;53.548;9.930;2022-08-19T08:16:00;12.65;;;8.93;;
10335;SDS011;5213;53.548;9.930;2022-08-19T08:18:26;9.57;;;8.57;;
10335;SDS011;5213;53.548;9.930;2022-08-19T08:20:53;15.48;;;10.05;;
10335;SDS011;5213;53.548;9.930;2022-08-19T08:23:19;13.23;;;9.38;;
10335;SDS011;5213;53.548;9.930;2022-08-19T08:25:50;15.45;;;11.07;;
10335;SDS011;5213;53.548;9.930;2022-08-19T08:28:19;17.60;;;12.70;;
10335;SDS011;5213;53.548;9.930;2022-08-19T08:30:46;15.68;;;12.50;;
10335;SDS011;5213;53.548;9.930;2022-08-19T08:33:13;24.70;;;13.43;;
10335;SDS011;5213;53.548;9.930;2022-08-19T08:35:39;20.52;;;13.35;;
10335;SDS011;5213;53.548;9.930;2022-08-19T08:38:10;18.00;;;13.05;;
10335;SDS011;5213;53.548;9.930;2022-08-19T08:40:53;19.65;;;13.65;;
10335;SDS011;5213;53.548;9.930;2022-08-19T08:43:44;23.35;;;14.95;;
10335;SDS011;5213;53.548;9.930;2022-08-19T08:46:18;17.80;;;13.50;;
10335;SDS011;5213;53.548;9.930;2022-08-19T08:48:49;21.45;;;14.48;;
10335;SDS011;5213;53.548;9.930;2022-08-19T08:51:20;16.77;;;13.23;;
10335;SDS011;5213;53.548;9.930;2022-08-19T08:53:48;18.38;;;13.60;;
10335;SDS011;5213;53.548;9.930;2022-08-19T08:56:15;18.40;;;13.18;;
10335;SDS011;5213;53.548;9.930;2022-08-19T08:58:45;17.23;;;14.00;;
10335;SDS011;5213;53.548;9.930;2022-08-19T09:01:12;21.80;;;15.38;;
10335;SDS011;5213;53.548;9.930;2022-08-19T09:03:39;20.50;;;14.75;;
10335;SDS011;5213;53.548;9.930;2022-08-19T09:06:07;20.33;;;15.02;;
10335;SDS011;5213;53.548;9.930;2022-08-19T09:11:08;22.50;;;15.05;;
10335;SDS011;5213;53.548;9.930;2022-08-19T09:16:09;21.88;;;14.40;;
10335;SDS011;5213;53.548;9.930;2022-08-19T09:18:53;16.05;;;12.45;;
10335;SDS011;5213;53.548;9.930;2022-08-19T09:21:20;19.25;;;12.70;;
10335;SDS011;5213;53.548;9.930;2022-08-19T09:23:47;17.23;;;12.25;;
10335;SDS011;5213;53.548;9.930;2022-08-19T09:26:15;17.00;;;12.90;;
10335;SDS011;5213;53.548;9.930;2022-08-19T09:28:42;20.00;;;11.77;;
10335;SDS011;5213;53.548;9.930;2022-08-19T09:31:12;19.15;;;12.30;;
10335;SDS011;5213;53.548;9.930;2022-08-19T09:33:39;14.95;;;12.35;;
10335;SDS011;5213;53.548;9.930;2022-08-19T09:36:09;17.23;;;10.98;;
10335;SDS011;5213;53.548;9.930;2022-08-19T09:38:35;18.92;;;12.85;;
10335;SDS011;5213;53.548;9.930;2022-08-19T09:41:06;22.77;;;13.20;;
10335;SDS011;5213;53.548;9.930;2022-08-19T09:43:32;18.42;;;12.05;;
10335;SDS011;5213;53.548;9.930;2022-08-19T09:46:01;14.75;;;12.65;;
10335;SDS011;5213;53.548;9.930;2022-08-19T09:48:27;14.70;;;11.15;;
10335;SDS011;5213;53.548;9.930;2022-08-19T09:50:53;15.52;;;11.85;;
10335;SDS011;5213;53.548;9.930;2022-08-19T09:53:19;14.88;;;11.65;;
10335;SDS011;5213;53.548;9.930;2022-08-19T09:55:47;15.00;;;11.82;;
10335;SDS011;5213;53.548;9.930;2022-08-19T09:58:13;15.30;;;12.05;;
10335;SDS011;5213;53.548;9.930;2022-08-19T10:00:39;18.23;;;12.65;;
10335;SDS011;5213;53.548;9.930;2022-08-19T10:03:05;14.90;;;11.65;;
10335;SDS011;5213;53.548;9.930;2022-08-19T10:05:31;14.80;;;11.68;;
10335;SDS011;5213;53.548;9.930;2022-08-19T10:08:12;21.15;;;13.95;;
10335;SDS011;5213;53.548;9.930;2022-08-19T10:10:38;16.73;;;13.95;;
10335;SDS011;5213;53.548;9.930;2022-08-19T10:13:05;19.15;;;14.77;;
10335;SDS011;5213;53.548;9.930;2022-08-19T10:15:31;19.48;;;14.73;;
10335;SDS011;5213;53.548;9.930;2022-08-19T10:17:57;19.00;;;15.00;;
10335;SDS011;5213;53.548;9.930;2022-08-19T10:20:24;21.50;;;15.07;;
10335;SDS011;5213;53.548;9.930;2022-08-19T10:22:50;19.02;;;15.40;;
10335;SDS011;5213;53.548;9.930;2022-08-19T10:25:16;16.20;;;14.50;;
10335;SDS011;5213;53.548;9.930;2022-08-19T10:27:42;18.73;;;15.38;;
10335;SDS011;5213;53.548;9.930;2022-08-19T10:30:09;18.30;;;14.43;;
10335;SDS011;5213;53.548;9.930;2022-08-19T10:32:35;17.80;;;15.13;;
10335;SDS011;5213;53.548;9.930;2022-08-19T10:35:02;21.30;;;16.00;;
10335;SDS011;5213;53.548;9.930;2022-08-19T10:37:32;17.25;;;14.93;;
10335;SDS011;5213;53.548;9.930;2022-08-19T10:39:58;21.48;;;16.10;;
10335;SDS011;5213;53.548;9.930;2022-08-19T10:42:24;20.90;;;15.43;;
10335;SDS011;5213;53.548;9.930;2022-08-19T10:44:50;19.10;;;15.73;;
10335;SDS011;5213;53.548;9.930;2022-08-19T10:47:17;19.95;;;14.68;;
10335;SDS011;5213;53.548;9.930;2022-08-19T10:49:43;20.20;;;13.90;;
10335;SDS011;5213;53.548;9.930;2022-08-19T10:52:27;17.05;;;14.15;;
10335;SDS011;5213;53.548;9.930;2022-08-19T10:55:04;19.08;;;15.27;;
10335;SDS011;5213;53.548;9.930;2022-08-19T10:57:49;18.13;;;14.15;;
10335;SDS011;5213;53.548;9.930;2022-08-19T11:00:15;18.30;;;15.60;;
10335;SDS011;5213;53.548;9.930;2022-08-19T11:02:42;21.30;;;16.05;;
10335;SDS011;5213;53.548;9.930;2022-08-19T11:05:08;18.13;;;14.90;;
10335;SDS011;5213;53.548;9.930;2022-08-19T11:07:36;16.42;;;14.65;;
10335;SDS011;5213;53.548;9.930;2022-08-19T11:10:03;16.65;;;14.25;;
10335;SDS011;5213;53.548;9.930;2022-08-19T11:12:29;20.52;;;14.90;;
10335;SDS011;5213;53.548;9.930;2022-08-19T11:14:55;19.63;;;15.82;;
10335;SDS011;5213;53.548;9.930;2022-08-19T11:17:21;18.58;;;15.23;;
10335;SDS011;5213;53.548;9.930;2022-08-19T11:19:48;21.15;;;15.43;;
10335;SDS011;5213;53.548;9.930;2022-08-19T11:22:15;17.35;;;14.57;;
10335;SDS011;5213;53.548;9.930;2022-08-19T11:24:42;17.95;;;13.73;;
10335;SDS011;5213;53.548;9.930;2022-08-19T11:27:08;16.23;;;14.20;;
10335;SDS011;5213;53.548;9.930;2022-08-19T11:29:37;15.50;;;13.90;;
10335;SDS011;5213;53.548;9.930;2022-08-19T11:32:05;16.02;;;12.95;;
10335;SDS011;5213;53.548;9.930;2022-08-19T11:34:32;18.20;;;13.75;;
10335;SDS011;5213;53.548;9.930;2022-08-19T11:37:00;17.38;;;13.65;;
10335;SDS011;5213;53.548;9.930;2022-08-19T11:39:27;16.85;;;13.55;;
10335;SDS011;5213;53.548;9.930;2022-08-19T11:41:54;16.67;;;12.48;;
10335;SDS011;5213;53.548;9.930;2022-08-19T11:44:20;15.05;;;13.38;;
10335;SDS011;5213;53.548;9.930;2022-08-19T11:46:47;14.48;;;13.07;;
10335;SDS011;5213;53.548;9.930;2022-08-19T11:49:13;16.10;;;12.35;;
10335;SDS011;5213;53.548;9.930;2022-08-19T11:51:40;13.82;;;11.35;;
10335;SDS011;5213;53.548;9.930;2022-08-19T11:54:09;13.63;;;12.02;;
10335;SDS011;5213;53.548;9.930;2022-08-19T11:56:36;14.32;;;12.32;;
10335;SDS011;5213;53.548;9.930;2022-08-19T11:59:02;14.88;;;12.75;;
10335;SDS011;5213;53.548;9.930;2022-08-19T12:01:28;14.98;;;13.02;;
10335;SDS011;5213;53.548;9.930;2022-08-19T12:03:55;15.65;;;14.00;;
10335;SDS011;5213;53.548;9.930;2022-08-19T12:06:24;14.73;;;13.20;;
10335;SDS011;5213;53.548;9.930;2022-08-19T12:08:56;16.25;;;14.07;;
10335;SDS011;5213;53.548;9.930;2022-08-19T12:11:23;13.85;;;12.45;;
10335;SDS011;5213;53.548;9.930;2022-08-19T12:13:49;15.48;;;13.85;;
10335;SDS011;5213;53.548;9.930;2022-08-19T12:16:20;14.57;;;13.10;;
10335;SDS011;5213;53.548;9.930;2022-08-19T12:18:47;14.93;;;13.40;;
10335;SDS011;5213;53.548;9.930;2022-08-19T12:21:16;17.90;;;15.30;;
10335;SDS011;5213;53.548;9.930;2022-08-19T12:23:43;14.60;;;13.07;;
10335;SDS011;5213;53.548;9.930;2022-08-19T12:26:13;13.38;;;11.93;;
10335;SDS011;5213;53.548;9.930;2022-08-19T12:28:39;14.85;;;12.63;;
10335;SDS011;5213;53.548;9.930;2022-08-19T12:31:06;14.48;;;13.10;;
10335;SDS011;5213;53.548;9.930;2022-08-19T12:33:33;15.43;;;13.85;;
10335;SDS011;5213;53.548;9.930;2022-08-19T12:36:03;14.73;;;13.27;;
10335;SDS011;5213;53.548;9.930;2022-08-19T12:38:30;14.75;;;13.30;;
10335;SDS011;5213;53.548;9.930;2022-08-19T12:40:57;14.77;;;13.27;;
10335;SDS011;5213;53.548;9.930;2022-08-19T12:43:23;14.13;;;12.70;;
10335;SDS011;5213;53.548;9.930;2022-08-19T12:45:49;12.45;;;11.25;;
10335;SDS011;5213;53.548;9.930;2022-08-19T12:48:16;13.43;;;12.10;;
10335;SDS011;5213;53.548;9.930;2022-08-19T12:50:43;12.93;;;11.68;;
10335;SDS011;5213;53.548;9.930;2022-08-19T12:53:10;14.10;;;12.70;;
10335;SDS011;5213;53.548;9.930;2022-08-19T12:55:37;12.65;;;11.57;;
10335;SDS011;5213;53.548;9.930;2022-08-19T12:58:03;13.50;;;12.18;;
10335;SDS011;5213;53.548;9.930;2022-08-19T13:00:29;12.43;;;11.32;;
10335;SDS011;5213;53.548;9.930;2022-08-19T13:02:57;11.35;;;10.35;;
10335;SDS011;5213;53.548;9.930;2022-08-19T13:05:25;12.82;;;11.50;;
10335;SDS011;5213;53.548;9.930;2022-08-19T13:07:52;14.65;;;11.20;;
10335;SDS011;5213;53.548;9.930;2022-08-19T13:10:23;12.70;;;11.60;;
10335;SDS011;5213;53.548;9.930;2022-08-19T13:12:50;13.13;;;11.82;;
10335;SDS011;5213;53.548;9.930;2022-08-19T13:15:18;14.05;;;12.75;;
10335;SDS011;5213;53.548;9.930;2022-08-19T13:17:45;12.63;;;11.52;;
10335;SDS011;5213;53.548;9.930;2022-08-19T13:20:14;14.07;;;12.68;;
10335;SDS011;5213;53.548;9.930;2022-08-19T13:22:40;13.65;;;12.35;;
10335;SDS011;5213;53.548;9.930;2022-08-19T13:25:07;13.65;;;12.13;;
10335;SDS011;5213;53.548;9.930;2022-08-19T13:27:34;12.32;;;11.20;;
10335;SDS011;5213;53.548;9.930;2022-08-19T13:30:00;13.73;;;12.35;;
10335;SDS011;5213;53.548;9.930;2022-08-19T13:32:45;13.55;;;12.35;;
10335;SDS011;5213;53.548;9.930;2022-08-19T13:35:29;14.05;;;12.73;;
10335;SDS011;5213;53.548;9.930;2022-08-19T13:37:55;13.88;;;12.60;;
10335;SDS011;5213;53.548;9.930;2022-08-19T13:40:22;12.95;;;11.75;;
10335;SDS011;5213;53.548;9.930;2022-08-19T13:42:51;13.07;;;11.88;;
10335;SDS011;5213;53.548;9.930;2022-08-19T13:45:19;13.15;;;11.88;;
10335;SDS011;5213;53.548;9.930;2022-08-19T13:47:46;13.55;;;12.32;;
10335;SDS011;5213;53.548;9.930;2022-08-19T13:50:13;12.52;;;11.43;;
10335;SDS011;5213;53.548;9.930;2022-08-19T13:52:40;14.15;;;12.80;;
10335;SDS011;5213;53.548;9.930;2022-08-19T13:55:07;13.18;;;11.98;;
10335;SDS011;5213;53.548;9.930;2022-08-19T13:57:33;13.68;;;12.45;;
10335;SDS011;5213;53.548;9.930;2022-08-19T14:00:00;13.63;;;12.40;;
10335;SDS011;5213;53.548;9.930;2022-08-19T14:02:26;14.38;;;12.98;;
10335;SDS011;5213;53.548;9.930;2022-08-19T14:04:53;13.98;;;12.68;;
10335;SDS011;5213;53.548;9.930;2022-08-19T14:07:19;16.15;;;14.63;;
10335;SDS011;5213;53.548;9.930;2022-08-19T14:09:48;13.88;;;12.50;;
10335;SDS011;5213;53.548;9.930;2022-08-19T14:12:14;15.13;;;13.63;;
10335;SDS011;5213;53.548;9.930;2022-08-19T14:14:40;16.08;;;14.68;;
10335;SDS011;5213;53.548;9.930;2022-08-19T14:17:06;15.07;;;13.73;;
10335;SDS011;5213;53.548;9.930;2022-08-19T14:19:33;14.88;;;13.48;;
10335;SDS011;5213;53.548;9.930;2022-08-19T14:21:59;14.98;;;13.57;;
10335;SDS011;5213;53.548;9.930;2022-08-19T14:24:25;15.63;;;14.13;;
10335;SDS011;5213;53.548;9.930;2022-08-19T14:26:51;13.98;;;12.77;;
10335;SDS011;5213;53.548;9.930;2022-08-19T14:29:18;15.02;;;13.63;;
10335;SDS011;5213;53.548;9.930;2022-08-19T14:31:44;13.32;;;12.20;;
10335;SDS011;5213;53.548;9.930;2022-08-19T14:34:10;13.43;;;12.02;;
10335;SDS011;5213;53.548;9.930;2022-08-19T14:36:37;12.70;;;11.55;;
10335;SDS011;5213;53.548;9.930;2022-08-19T14:39:04;14.38;;;12.98;;
10335;SDS011;5213;53.548;9.930;2022-08-19T14:41:30;13.32;;;12.13;;
10335;SDS011;5213;53.548;9.930;2022-08-19T14:43:56;13.95;;;12.82;;
10335;SDS011;5213;53.548;9.930;2022-08-19T14:46:23;14.48;;;13.27;;
10335;SDS011;5213;53.548;9.930;2022-08-19T14:48:50;14.27;;;12.98;;
10335;SDS011;5213;53.548;9.930;2022-08-19T14:51:16;15.10;;;13.50;;